sensor_id;sensor_type;location;lat;lon;timestamp;pressure;altitude;pressure_sealevel;temperature;humidity
62011;BME280;47967;51.756;10.174;2023-10-31T05:04:01;97847.34;;;11.65;100.00
62011;BME280;47967;51.756;10.174;2023-10-31T05:08:13;97846.47;;;11.59;100.00
62011;BME280;47967;51.756;10.174;2023-10-31T05:12:16;97842.91;;;11.53;100.00
62011;BME280;47967;51.756;10.174;2023-10-31T05:16:19;97863.06;;;11.46;100.00
62011;BME280;47967;51.756;10.174;2023-10-31T05:20:23;97855.22;;;11.44;100.00
62011;BME280;47967;51.756;10.174;2023-10-31T05:24:25;97858.41;;;11.41;100.00
62011;BME280;47967;51.756;10.174;2023-10-31T05:28:28;97858.94;;;11.38;100.00
62011;BME280;47967;51.756;10.174;2023-10-31T05:32:31;97851.91;;;11.37;100.00
62011;BME280;47967;51.756;10.174;2023-10-31T05:36:35;97855.72;;;11.41;100.00
62011;BME280;47967;51.756;10.174;2023-10-31T05:40:38;97850.22;;;11.31;100.00
62011;BME280;47967;51.756;10.174;2023-10-31T05:44:40;97860.00;;;11.37;100.00
62011;BME280;47967;51.756;10.174;2023-10-31T05:48:44;97868.84;;;11.32;100.00
62011;BME280;47967;51.756;10.174;2023-10-31T05:52:49;97866.78;;;11.40;100.00
62011;BME280;47967;51.756;10.174;2023-10-31T05:56:52;97869.53;;;11.23;100.00
62011;BME280;47967;51.756;10.174;2023-10-31T06:00:54;97881.19;;;11.23;100.00
62011;BME280;47967;51.756;10.174;2023-10-31T06:04:57;97887.31;;;11.18;100.00
62011;BME280;47967;51.756;10.174;2023-10-31T06:09:05;97908.66;;;11.20;100.00
62011;BME280;47967;51.756;10.174;2023-10-31T06:13:08;97887.75;;;11.10;100.00
62011;BME280;47967;51.756;10.174;2023-10-31T06:17:11;97896.91;;;11.09;100.00
62011;BME280;47967;51.756;10.174;2023-10-31T06:21:13;97903.56;;;11.01;100.00
62011;BME280;47967;51.756;10.174;2023-10-31T06:25:17;97907.97;;;11.08;100.00
62011;BME280;47967;51.756;10.174;2023-10-31T06:29:20;97911.22;;;11.10;100.00
62011;BME280;47967;51.756;10.174;2023-10-31T06:33:43;97919.25;;;11.04;100.00
62011;BME280;47967;51.756;10.174;2023-10-31T06:37:45;97907.69;;;11.09;100.00
62011;BME280;47967;51.756;10.174;2023-10-31T06:41:49;97911.28;;;11.15;100.00
62011;BME280;47967;51.756;10.174;2023-10-31T06:45:52;97909.16;;;11.17;100.00
62011;BME280;47967;51.756;10.174;2023-10-31T06:49:55;97913.56;;;11.23;100.00
62011;BME280;47967;51.756;10.174;2023-10-31T06:53:57;97919.59;;;11.30;100.00
62011;BME280;47967;51.756;10.174;2023-10-31T06:58:01;97921.72;;;11.28;100.00
62011;BME280;47967;51.756;10.174;2023-10-31T07:02:05;97912.03;;;11.32;100.00
62011;BME280;47967;51.756;10.174;2023-10-31T07:06:07;97918.81;;;11.35;100.00
62011;BME280;47967;51.756;10.174;2023-10-31T07:10:10;97912.03;;;11.32;100.00
62011;BME280;47967;51.756;10.174;2023-10-31T07:14:14;97924.09;;;11.47;100.00
62011;BME280;47967;51.756;10.174;2023-10-31T07:18:17;97920.09;;;11.49;100.00
62011;BME280;47967;51.756;10.174;2023-10-31T07:22:19;97918.31;;;11.60;100.00
62011;BME280;47967;51.756;10.174;2023-10-31T07:26:23;97924.03;;;11.64;100.00
62011;BME280;47967;51.756;10.174;2023-10-31T07:30:28;97921.28;;;11.59;100.00
62011;BME280;47967;51.756;10.174;2023-10-31T07:34:31;97937.19;;;11.55;100.00
62011;BME280;47967;51.756;10.174;2023-10-31T07:38:34;97937.75;;;11.57;100.00
62011;BME280;47967;51.756;10.174;2023-10-31T07:42:37;97947.41;;;11.53;100.00
62011;BME280;47967;51.756;10.174;2023-10-31T07:46:41;97948.16;;;11.48;100.00
62011;BME280;47967;51.756;10.174;2023-10-31T07:50:43;97955.38;;;11.43;100.00
62011;BME280;47967;51.756;10.174;2023-10-31T07:54:46;97951.47;;;11.33;100.00
62011;BME280;47967;51.756;10.174;2023-10-31T07:58:49;97965.66;;;11.24;100.00
62011;BME280;47967;51.756;10.174;2023-10-31T08:02:53;97972.06;;;11.17;100.00
62011;BME280;47967;51.756;10.174;2023-10-31T08:06:57;97989.19;;;11.06;100.00
62011;BME280;47967;51.756;10.174;2023-10-31T08:11:00;97998.72;;;11.14;100.00
62011;BME280;47967;51.756;10.174;2023-10-31T08:15:03;97991.28;;;11.21;100.00
62011;BME280;47967;51.756;10.174;2023-10-31T08:19:07;97981.69;;;11.30;100.00
62011;BME280;47967;51.756;10.174;2023-10-31T08:23:10;97995.94;;;11.48;100.00
62011;BME280;47967;51.756;10.174;2023-10-31T08:27:13;97989.50;;;11.49;100.00
62011;BME280;47967;51.756;10.174;2023-10-31T08:31:16;97989.66;;;11.64;100.00
62011;BME280;47967;51.756;10.174;2023-10-31T08:35:20;97996.53;;;11.72;100.00
62011;BME280;47967;51.756;10.174;2023-10-31T08:39:22;98001.78;;;11.62;100.00
62011;BME280;47967;51.756;10.174;2023-10-31T08:43:25;98017.63;;;11.53;100.00
62011;BME280;47967;51.756;10.174;2023-10-31T08:47:28;98020.97;;;11.60;100.00
62011;BME280;47967;51.756;10.174;2023-10-31T08:51:32;98029.28;;;11.76;100.00
62011;BME280;47967;51.756;10.174;2023-10-31T08:55:34;98044.09;;;11.73;100.00
62011;BME280;47967;51.756;10.174;2023-10-31T08:59:37;98053.38;;;11.60;100.00
62011;BME280;47967;51.756;10.174;2023-10-31T09:03:41;98066.22;;;11.53;100.00
62011;BME280;47967;51.756;10.174;2023-10-31T09:07:45;98067.50;;;11.45;100.00
62011;BME280;47967;51.756;10.174;2023-10-31T09:11:48;98093.09;;;11.43;100.00
62011;BME280;47967;51.756;10.174;2023-10-31T09:15:50;98087.34;;;11.56;100.00
62011;BME280;47967;51.756;10.174;2023-10-31T09:19:53;98094.94;;;11.59;100.00
62011;BME280;47967;51.756;10.174;2023-10-31T09:23:57;98093.63;;;11.62;100.00
62011;BME280;47967;51.756;10.174;2023-10-31T09:28:00;98101.63;;;11.74;100.00
62011;BME280;47967;51.756;10.174;2023-10-31T09:32:03;98113.84;;;11.76;100.00
62011;BME280;47967;51.756;10.174;2023-10-31T09:36:08;98120.66;;;11.62;100.00
62011;BME280;47967;51.756;10.174;2023-10-31T09:40:12;98138.75;;;11.61;100.00
62011;BME280;47967;51.756;10.174;2023-10-31T09:44:15;98153.69;;;11.86;100.00
62011;BME280;47967;51.756;10.174;2023-10-31T09:48:18;98152.63;;;12.04;100.00
62011;BME280;47967;51.756;10.174;2023-10-31T09:52:22;98161.38;;;12.11;100.00
62011;BME280;47967;51.756;10.174;2023-10-31T09:56:26;98170.19;;;12.24;100.00
62011;BME280;47967;51.756;10.174;2023-10-31T10:00:35;98177.91;;;12.15;100.00
62011;BME280;47967;51.756;10.174;2023-10-31T10:04:39;98176.00;;;12.15;100.00
62011;BME280;47967;51.756;10.174;2023-10-31T10:08:42;98177.53;;;12.28;100.00
62011;BME280;47967;51.756;10.174;2023-10-31T10:12:46;98192.03;;;12.39;100.00
62011;BME280;47967;51.756;10.174;2023-10-31T10:16:49;98200.88;;;12.35;100.00
62011;BME280;47967;51.756;10.174;2023-10-31T10:20:55;98201.00;;;12.45;100.00
62011;BME280;47967;51.756;10.174;2023-10-31T10:24:58;98205.78;;;12.38;100.00
62011;BME280;47967;51.756;10.174;2023-10-31T10:29:02;98218.69;;;12.53;100.00
62011;BME280;47967;51.756;10.174;2023-10-31T10:33:05;98214.28;;;12.46;100.00
62011;BME280;47967;51.756;10.174;2023-10-31T10:37:08;98211.13;;;12.55;100.00
62011;BME280;47967;51.756;10.174;2023-10-31T10:41:13;98219.34;;;12.60;100.00
62011;BME280;47967;51.756;10.174;2023-10-31T10:45:19;98222.59;;;12.62;100.00
62011;BME280;47967;51.756;10.174;2023-10-31T10:49:24;98222.47;;;12.74;100.00
62011;BME280;47967;51.756;10.174;2023-10-31T10:53:30;98219.84;;;13.06;100.00
62011;BME280;47967;51.756;10.174;2023-10-31T10:57:38;98232.50;;;13.01;100.00
62011;BME280;47967;51.756;10.174;2023-10-31T11:01:46;98222.28;;;13.35;100.00
62011;BME280;47967;51.756;10.174;2023-10-31T11:05:50;98218.34;;;13.43;100.00
62011;BME280;47967;51.756;10.174;2023-10-31T11:09:53;98210.00;;;13.22;100.00
62011;BME280;47967;51.756;10.174;2023-10-31T11:13:56;98211.97;;;13.59;100.00
62011;BME280;47967;51.756;10.174;2023-10-31T11:18:02;98219.72;;;13.78;100.00
62011;BME280;47967;51.756;10.174;2023-10-31T11:22:05;98221.28;;;13.14;100.00
62011;BME280;47967;51.756;10.174;2023-10-31T11:26:08;98224.00;;;13.14;100.00
62011;BME280;47967;51.756;10.174;2023-10-31T11:30:20;98221.13;;;13.26;100.00
62011;BME280;47967;51.756;10.174;2023-10-31T11:34:26;98225.63;;;13.15;100.00
62011;BME280;47967;51.756;10.174;2023-10-31T11:38:32;98221.44;;;13.29;100.00
62011;BME280;47967;51.756;10.174;2023-10-31T11:42:36;98226.72;;;13.41;100.00
62011;BME280;47967;51.756;10.174;2023-10-31T11:46:38;98234.28;;;13.72;100.00
62011;BME280;47967;51.756;10.174;2023-10-31T11:50:43;98230.97;;;13.97;99.83
62011;BME280;47967;51.756;10.174;2023-10-31T11:54:46;98222.47;;;14.21;98.74
62011;BME280;47967;51.756;10.174;2023-10-31T11:58:57;98231.56;;;14.04;95.71
62011;BME280;47967;51.756;10.174;2023-10-31T12:03:00;98226.59;;;13.91;97.96
62011;BME280;47967;51.756;10.174;2023-10-31T12:07:05;98233.47;;;14.57;96.92
62011;BME280;47967;51.756;10.174;2023-10-31T12:11:09;98219.47;;;14.22;97.54
62011;BME280;47967;51.756;10.174;2023-10-31T12:15:13;98229.53;;;14.27;96.66
62011;BME280;47967;51.756;10.174;2023-10-31T12:19:15;98243.22;;;14.48;95.58
62011;BME280;47967;51.756;10.174;2023-10-31T12:23:19;98242.50;;;14.20;96.39
62011;BME280;47967;51.756;10.174;2023-10-31T12:27:22;98257.16;;;13.81;99.82
62011;BME280;47967;51.756;10.174;2023-10-31T12:31:25;98261.00;;;13.58;100.00
62011;BME280;47967;51.756;10.174;2023-10-31T12:35:27;98263.06;;;13.45;100.00
62011;BME280;47967;51.756;10.174;2023-10-31T12:39:32;98263.25;;;13.39;100.00
62011;BME280;47967;51.756;10.174;2023-10-31T12:43:35;98280.69;;;13.48;100.00
62011;BME280;47967;51.756;10.174;2023-10-31T12:47:38;98277.88;;;13.65;100.00
62011;BME280;47967;51.756;10.174;2023-10-31T12:51:58;98279.78;;;13.97;100.00
62011;BME280;47967;51.756;10.174;2023-10-31T12:56:03;98286.13;;;13.48;100.00
62011;BME280;47967;51.756;10.174;2023-10-31T13:00:07;98285.91;;;13.55;100.00
62011;BME280;47967;51.756;10.174;2023-10-31T13:04:24;98292.19;;;13.60;100.00
62011;BME280;47967;51.756;10.174;2023-10-31T13:08:27;98308.06;;;13.47;100.00
62011;BME280;47967;51.756;10.174;2023-10-31T13:12:31;98290.53;;;13.32;100.00
62011;BME280;47967;51.756;10.174;2023-10-31T13:16:34;98306.59;;;13.17;100.00
62011;BME280;47967;51.756;10.174;2023-10-31T13:20:37;98302.28;;;12.93;100.00
62011;BME280;47967;51.756;10.174;2023-10-31T13:24:40;98330.84;;;12.84;100.00
62011;BME280;47967;51.756;10.174;2023-10-31T13:28:45;98319.25;;;13.33;100.00
62011;BME280;47967;51.756;10.174;2023-10-31T13:32:48;98326.81;;;13.53;100.00
62011;BME280;47967;51.756;10.174;2023-10-31T13:36:50;98334.63;;;13.27;100.00
62011;BME280;47967;51.756;10.174;2023-10-31T13:40:55;98334.63;;;13.05;100.00
62011;BME280;47967;51.756;10.174;2023-10-31T13:45:00;98337.50;;;13.38;100.00
62011;BME280;47967;51.756;10.174;2023-10-31T13:49:05;98340.03;;;13.27;100.00
62011;BME280;47967;51.756;10.174;2023-10-31T13:53:09;98346.97;;;13.18;100.00
62011;BME280;47967;51.756;10.174;2023-10-31T13:57:11;98344.25;;;13.18;100.00
62011;BME280;47967;51.756;10.174;2023-10-31T14:01:15;98353.16;;;13.13;100.00
62011;BME280;47967;51.756;10.174;2023-10-31T14:05:18;98363.22;;;13.18;100.00
62011;BME280;47967;51.756;10.174;2023-10-31T14:09:21;98360.50;;;13.18;100.00
62011;BME280;47967;51.756;10.174;2023-10-31T14:13:23;98370.09;;;13.48;100.00
62011;BME280;47967;51.756;10.174;2023-10-31T14:17:27;98373.66;;;13.32;100.00
62011;BME280;47967;51.756;10.174;2023-10-31T14:21:30;98377.28;;;13.15;100.00
62011;BME280;47967;51.756;10.174;2023-10-31T14:25:33;98383.84;;;13.02;100.00
62011;BME280;47967;51.756;10.174;2023-10-31T14:29:35;98380.19;;;12.91;100.00
62011;BME280;47967;51.756;10.174;2023-10-31T14:33:39;98380.72;;;12.88;100.00
62011;BME280;47967;51.756;10.174;2023-10-31T14:37:42;98400.25;;;12.90;100.00
62011;BME280;47967;51.756;10.174;2023-10-31T14:41:45;98401.06;;;12.74;100.00
62011;BME280;47967;51.756;10.174;2023-10-31T14:45:48;98406.66;;;12.84;100.00
62011;BME280;47967;51.756;10.174;2023-10-31T14:49:52;98414.84;;;12.89;100.00
62011;BME280;47967;51.756;10.174;2023-10-31T14:53:54;98413.25;;;12.93;100.00
62011;BME280;47967;51.756;10.174;2023-10-31T14:57:57;98426.66;;;12.83;100.00
62011;BME280;47967;51.756;10.174;2023-10-31T15:02:00;98431.81;;;12.85;100.00
62011;BME280;47967;51.756;10.174;2023-10-31T15:06:04;98431.00;;;12.84;100.00
62011;BME280;47967;51.756;10.174;2023-10-31T15:10:11;98433.06;;;12.77;100.00
62011;BME280;47967;51.756;10.174;2023-10-31T15:14:14;98438.81;;;12.80;100.00
62011;BME280;47967;51.756;10.174;2023-10-31T15:18:16;98431.16;;;12.77;100.00
62011;BME280;47967;51.756;10.174;2023-10-31T15:22:21;98434.53;;;12.85;100.00
62011;BME280;47967;51.756;10.174;2023-10-31T15:26:23;98457.81;;;12.86;100.00
62011;BME280;47967;51.756;10.174;2023-10-31T15:30:28;98458.09;;;12.67;100.00
62011;BME280;47967;51.756;10.174;2023-10-31T15:34:30;98463.72;;;12.65;100.00
62011;BME280;47967;51.756;10.174;2023-10-31T15:38:35;98463.56;;;12.55;100.00
62011;BME280;47967;51.756;10.174;2023-10-31T15:42:37;98477.16;;;12.43;100.00
62011;BME280;47967;51.756;10.174;2023-10-31T15:46:40;98480.50;;;12.33;100.00
62011;BME280;47967;51.756;10.174;2023-10-31T15:50:42;98488.63;;;12.33;100.00
62011;BME280;47967;51.756;10.174;2023-10-31T15:54:47;98493.22;;;12.33;100.00
62011;BME280;47967;51.756;10.174;2023-10-31T15:58:49;98494.53;;;12.30;100.00
62011;BME280;47967;51.756;10.174;2023-10-31T16:02:52;98495.66;;;12.35;100.00
62011;BME280;47967;51.756;10.174;2023-10-31T16:06:55;98504.25;;;12.31;100.00
62011;BME280;47967;51.756;10.174;2023-10-31T16:10:59;98515.25;;;12.25;100.00
62011;BME280;47967;51.756;10.174;2023-10-31T16:15:03;98515.97;;;12.20;100.00
62011;BME280;47967;51.756;10.174;2023-10-31T16:19:06;98518.22;;;12.11;100.00
62011;BME280;47967;51.756;10.174;2023-10-31T16:23:08;98528.28;;;11.99;100.00
62011;BME280;47967;51.756;10.174;2023-10-31T16:27:12;98532.72;;;11.93;100.00
62011;BME280;47967;51.756;10.174;2023-10-31T16:31:16;98546.84;;;11.83;100.00
62011;BME280;47967;51.756;10.174;2023-10-31T16:35:20;98556.44;;;11.91;100.00
62011;BME280;47967;51.756;10.174;2023-10-31T16:39:23;98567.75;;;11.88;100.00
62011;BME280;47967;51.756;10.174;2023-10-31T16:43:27;98583.13;;;11.88;100.00
62011;BME280;47967;51.756;10.174;2023-10-31T16:47:29;98591.00;;;11.89;100.00
62011;BME280;47967;51.756;10.174;2023-10-31T16:51:32;98590.06;;;11.95;100.00
62011;BME280;47967;51.756;10.174;2023-10-31T16:55:35;98600.88;;;11.95;100.00
62011;BME280;47967;51.756;10.174;2023-10-31T16:59:40;98602.56;;;11.96;100.00
62011;BME280;47967;51.756;10.174;2023-10-31T17:03:42;98610.84;;;11.95;100.00
62011;BME280;47967;51.756;10.174;2023-10-31T17:07:45;98608.63;;;11.92;100.00
62011;BME280;47967;51.756;10.174;2023-10-31T17:11:48;98616.25;;;11.95;100.00
62011;BME280;47967;51.756;10.174;2023-10-31T17:15:52;98619.78;;;11.95;100.00
62011;BME280;47967;51.756;10.174;2023-10-31T17:19:54;98628.38;;;11.92;100.00
62011;BME280;47967;51.756;10.174;2023-10-31T17:23:57;98637.31;;;11.93;100.00
62011;BME280;47967;51.756;10.174;2023-10-31T17:28:00;98641.53;;;11.89;100.00
62011;BME280;47967;51.756;10.174;2023-10-31T17:32:05;98648.47;;;11.84;100.00
62011;BME280;47967;51.756;10.174;2023-10-31T17:36:20;98659.53;;;11.83;100.00
62011;BME280;47967;51.756;10.174;2023-10-31T17:40:24;98674.34;;;11.80;100.00
62011;BME280;47967;51.756;10.174;2023-10-31T17:44:27;98681.59;;;11.80;100.00
62011;BME280;47967;51.756;10.174;2023-10-31T17:48:31;98687.97;;;11.85;100.00
62011;BME280;47967;51.756;10.174;2023-10-31T17:52:33;98693.47;;;11.91;100.00
62011;BME280;47967;51.756;10.174;2023-10-31T17:56:36;98699.47;;;11.93;100.00
62011;BME280;47967;51.756;10.174;2023-10-31T18:00:39;98700.78;;;11.90;100.00
62011;BME280;47967;51.756;10.174;2023-10-31T18:04:43;98712.03;;;11.87;100.00
62011;BME280;47967;51.756;10.174;2023-10-31T18:08:47;98714.63;;;11.82;100.00
62011;BME280;47967;51.756;10.174;2023-10-31T18:12:50;98722.38;;;11.78;100.00
62011;BME280;47967;51.756;10.174;2023-10-31T18:16:52;98723.69;;;11.76;100.00
62011;BME280;47967;51.756;10.174;2023-10-31T18:20:56;98718.72;;;11.73;100.00
62011;BME280;47967;51.756;10.174;2023-10-31T18:25:02;98725.41;;;11.70;100.00
62011;BME280;47967;51.756;10.174;2023-10-31T18:29:05;98730.47;;;11.66;100.00
62011;BME280;47967;51.756;10.174;2023-10-31T18:33:08;98733.06;;;11.61;100.00
62011;BME280;47967;51.756;10.174;2023-10-31T18:37:12;98726.81;;;11.61;100.00
62011;BME280;47967;51.756;10.174;2023-10-31T18:41:15;98729.88;;;11.64;100.00
62011;BME280;47967;51.756;10.174;2023-10-31T18:45:17;98730.00;;;11.58;100.00
62011;BME280;47967;51.756;10.174;2023-10-31T18:49:20;98728.94;;;11.59;100.00
62011;BME280;47967;51.756;10.174;2023-10-31T18:53:24;98736.09;;;11.53;100.00
62011;BME280;47967;51.756;10.174;2023-10-31T18:57:27;98746.16;;;11.46;100.00
62011;BME280;47967;51.756;10.174;2023-10-31T19:01:31;98736.59;;;11.31;100.00
62011;BME280;47967;51.756;10.174;2023-10-31T19:05:34;98736.97;;;11.35;100.00
62011;BME280;47967;51.756;10.174;2023-10-31T19:09:38;98734.19;;;11.42;100.00
62011;BME280;47967;51.756;10.174;2023-10-31T19:13:41;98741.81;;;11.45;100.00
62011;BME280;47967;51.756;10.174;2023-10-31T19:17:43;98747.22;;;11.45;100.00
62011;BME280;47967;51.756;10.174;2023-10-31T19:21:46;98744.31;;;11.46;100.00
62011;BME280;47967;51.756;10.174;2023-10-31T19:25:50;98742.75;;;11.38;100.00
62011;BME280;47967;51.756;10.174;2023-10-31T19:29:53;98758.56;;;11.23;100.00
62011;BME280;47967;51.756;10.174;2023-10-31T19:33:56;98760.72;;;11.02;100.00
62011;BME280;47967;51.756;10.174;2023-10-31T19:37:59;98759.66;;;11.03;100.00
62011;BME280;47967;51.756;10.174;2023-10-31T19:42:03;98762.00;;;11.00;100.00
62011;BME280;47967;51.756;10.174;2023-10-31T19:46:05;98764.25;;;10.84;100.00
62011;BME280;47967;51.756;10.174;2023-10-31T19:50:09;98756.75;;;10.68;100.00
62011;BME280;47967;51.756;10.174;2023-10-31T19:54:11;98762.53;;;10.53;100.00
62011;BME280;47967;51.756;10.174;2023-10-31T19:58:15;98762.44;;;10.41;100.00
62011;BME280;47967;51.756;10.174;2023-10-31T20:02:20;98762.50;;;10.34;100.00
62011;BME280;47967;51.756;10.174;2023-10-31T20:06:22;98758.25;;;10.27;100.00
62011;BME280;47967;51.756;10.174;2023-10-31T20:10:25;98757.63;;;10.24;100.00
62011;BME280;47967;51.756;10.174;2023-10-31T20:14:29;98765.56;;;10.19;100.00
62011;BME280;47967;51.756;10.174;2023-10-31T20:18:52;98760.84;;;10.15;100.00
62011;BME280;47967;51.756;10.174;2023-10-31T20:22:55;98764.53;;;9.95;100.00
62011;BME280;47967;51.756;10.174;2023-10-31T20:26:57;98765.81;;;9.92;100.00
62011;BME280;47967;51.756;10.174;2023-10-31T20:31:02;98778.78;;;10.02;100.00
62011;BME280;47967;51.756;10.174;2023-10-31T20:35:05;98778.09;;;10.07;100.00
62011;BME280;47967;51.756;10.174;2023-10-31T20:39:08;98779.94;;;10.13;100.00
62011;BME280;47967;51.756;10.174;2023-10-31T20:43:12;98789.59;;;10.21;100.00
62011;BME280;47967;51.756;10.174;2023-10-31T20:47:16;98783.75;;;10.24;100.00
62011;BME280;47967;51.756;10.174;2023-10-31T20:51:19;98792.44;;;10.26;100.00
62011;BME280;47967;51.756;10.174;2023-10-31T20:55:21;98804.59;;;10.35;100.00
62011;BME280;47967;51.756;10.174;2023-10-31T20:59:24;98804.00;;;10.33;100.00
62011;BME280;47967;51.756;10.174;2023-10-31T21:03:28;98800.09;;;10.29;100.00
62011;BME280;47967;51.756;10.174;2023-10-31T21:07:31;98798.88;;;10.25;100.00
62011;BME280;47967;51.756;10.174;2023-10-31T21:11:34;98797.69;;;10.21;100.00
62011;BME280;47967;51.756;10.174;2023-10-31T21:15:36;98798.88;;;10.25;100.00
62011;BME280;47967;51.756;10.174;2023-10-31T21:19:40;98790.50;;;10.33;100.00
62011;BME280;47967;51.756;10.174;2023-10-31T21:23:43;98793.88;;;10.29;100.00
62011;BME280;47967;51.756;10.174;2023-10-31T21:27:46;98789.97;;;10.24;100.00
62011;BME280;47967;51.756;10.174;2023-10-31T21:31:50;98788.09;;;10.25;100.00
62011;BME280;47967;51.756;10.174;2023-10-31T21:35:54;98790.59;;;10.27;100.00
62011;BME280;47967;51.756;10.174;2023-10-31T21:39:57;98792.22;;;10.28;100.00
62011;BME280;47967;51.756;10.174;2023-10-31T21:43:59;98796.56;;;10.29;100.00
62011;BME280;47967;51.756;10.174;2023-10-31T21:48:02;98792.66;;;10.24;100.00
62011;BME280;47967;51.756;10.174;2023-10-31T21:52:10;98803.97;;;10.15;100.00
62011;BME280;47967;51.756;10.174;2023-10-31T21:56:13;98798.19;;;10.11;100.00
